createdAt,value
2019-05-15T00:00:32.639Z,0.00
2019-05-15T00:01:30.108Z,0.00
2019-05-15T00:03:23.093Z,0.00
2019-05-15T00:04:23.146Z,0.00
2019-05-15T00:06:16.157Z,0.00
2019-05-15T00:07:18.324Z,0.00
2019-05-15T00:09:09.176Z,0.00
2019-05-15T00:10:09.231Z,0.00
2019-05-15T00:12:02.235Z,0.00
2019-05-15T00:13:02.271Z,0.00
2019-05-15T00:14:55.248Z,0.00
2019-05-15T00:15:55.309Z,0.00
2019-05-15T00:17:48.664Z,0.00
2019-05-15T00:18:48.391Z,0.00
2019-05-15T00:20:41.350Z,0.00
2019-05-15T00:21:41.383Z,0.00
2019-05-15T00:23:34.388Z,0.00
2019-05-15T00:24:34.421Z,0.00
2019-05-15T00:26:27.404Z,0.00
2019-05-15T00:27:28.466Z,0.00
2019-05-15T00:29:20.461Z,0.00
2019-05-15T00:30:20.495Z,0.00
2019-05-15T00:32:13.499Z,0.00
2019-05-15T00:33:13.532Z,0.00
2019-05-15T00:35:06.521Z,0.00
2019-05-15T00:36:08.557Z,0.00
2019-05-15T00:37:59.584Z,0.00
2019-05-15T00:38:59.605Z,0.00
2019-05-15T00:40:52.585Z,0.00
2019-05-15T00:41:54.793Z,0.00
2019-05-15T00:43:45.645Z,0.00
2019-05-15T00:44:45.678Z,0.00
2019-05-15T00:46:38.683Z,0.00
2019-05-15T00:47:39.770Z,0.00
2019-05-15T00:49:31.692Z,0.00
2019-05-15T00:50:31.752Z,0.00
2019-05-15T00:52:25.271Z,0.00
2019-05-15T00:53:25.301Z,0.00
2019-05-15T00:55:19.040Z,0.00
2019-05-15T00:56:19.456Z,0.00
2019-05-15T00:58:11.350Z,0.00
2019-05-15T00:59:23.169Z,0.00
2019-05-15T01:01:04.354Z,0.00
2019-05-15T01:02:04.414Z,0.00
2019-05-15T01:03:58.610Z,0.00
2019-05-15T01:04:58.549Z,0.00
2019-05-15T01:06:52.683Z,0.00
2019-05-15T01:07:50.495Z,0.00
2019-05-15T01:09:43.510Z,0.00
2019-05-15T01:10:43.532Z,0.00
2019-05-15T01:12:37.998Z,0.00
2019-05-15T01:13:38.618Z,0.00
2019-05-15T01:15:29.579Z,0.00
2019-05-15T01:16:29.605Z,0.00
2019-05-15T01:18:22.621Z,0.00
2019-05-15T01:19:22.645Z,0.00
2019-05-15T01:21:15.631Z,0.00
2019-05-15T01:22:15.690Z,0.00
2019-05-15T01:24:08.679Z,0.00
2019-05-15T01:25:08.985Z,0.00
2019-05-15T01:27:01.731Z,0.00
2019-05-15T01:28:01.764Z,0.00
2019-05-15T01:29:54.768Z,0.00
2019-05-15T01:30:54.801Z,0.00
2019-05-15T01:32:48.589Z,0.00
2019-05-15T01:33:48.191Z,0.00
2019-05-15T01:35:40.845Z,0.00
2019-05-15T01:36:40.878Z,0.00
2019-05-15T01:38:33.862Z,0.00
2019-05-15T01:39:33.917Z,0.00
2019-05-15T01:41:28.151Z,0.00
2019-05-15T01:42:28.023Z,0.00
2019-05-15T01:44:19.961Z,0.00
2019-05-15T01:45:19.989Z,0.00
2019-05-15T01:47:12.969Z,0.00
2019-05-15T01:48:13.023Z,0.00
2019-05-15T01:50:06.029Z,0.00
2019-05-15T01:51:06.060Z,0.00
2019-05-15T01:52:59.549Z,0.00
2019-05-15T01:53:59.604Z,0.00
2019-05-15T01:55:52.610Z,0.00
2019-05-15T01:56:52.643Z,0.00
2019-05-15T01:58:45.617Z,0.00
2019-05-15T01:59:56.546Z,0.00
2019-05-15T02:01:39.328Z,0.00
2019-05-15T02:02:39.338Z,0.00
2019-05-15T02:04:31.738Z,0.00
2019-05-15T02:05:31.754Z,0.00
2019-05-15T02:07:24.755Z,0.00
2019-05-15T02:08:24.792Z,0.00
2019-05-15T02:10:18.665Z,0.00
2019-05-15T02:11:18.132Z,0.00
2019-05-15T02:13:10.831Z,0.00
2019-05-15T02:14:10.870Z,0.00
2019-05-15T02:16:03.843Z,0.00
2019-05-15T02:17:03.900Z,0.00
2019-05-15T02:18:58.211Z,0.00
2019-05-15T02:19:58.706Z,0.00
2019-05-15T02:21:49.912Z,0.00
2019-05-15T02:22:49.967Z,0.00
2019-05-15T02:24:42.979Z,0.00
2019-05-15T02:25:43.010Z,0.00
2019-05-15T02:27:38.932Z,0.00
2019-05-15T02:28:38.175Z,0.00
2019-05-15T02:30:33.874Z,0.00
2019-05-15T02:31:30.106Z,0.00
2019-05-15T02:33:22.102Z,0.00
2019-05-15T02:34:22.131Z,0.00
2019-05-15T02:36:15.111Z,0.00
2019-05-15T02:37:15.169Z,0.00
2019-05-15T02:39:08.881Z,0.00
2019-05-15T02:40:09.956Z,0.00
2019-05-15T02:42:01.184Z,0.00
2019-05-15T02:43:01.250Z,0.00
2019-05-15T02:44:54.268Z,0.00
2019-05-15T02:45:54.273Z,0.00
2019-05-15T02:47:48.734Z,0.00
2019-05-15T02:48:48.857Z,0.00
2019-05-15T02:50:40.295Z,0.00
2019-05-15T02:51:40.353Z,0.00
2019-05-15T02:53:33.358Z,0.00
2019-05-15T02:54:33.390Z,0.00
2019-05-15T02:56:29.100Z,0.00
2019-05-15T02:57:29.749Z,0.00
2019-05-15T02:59:19.785Z,0.00
2019-05-15T03:00:35.921Z,0.00
2019-05-15T03:02:12.430Z,0.00
2019-05-15T03:03:12.490Z,0.00
2019-05-15T03:05:09.008Z,0.00
2019-05-15T03:06:05.526Z,0.00
2019-05-15T03:07:59.304Z,0.00
2019-05-15T03:08:59.616Z,0.00
2019-05-15T03:10:51.566Z,0.00
2019-05-15T03:11:51.593Z,0.00
2019-05-15T03:13:44.573Z,0.00
2019-05-15T03:14:44.631Z,0.00
2019-05-15T03:16:39.401Z,0.00
2019-05-15T03:17:40.203Z,0.00
2019-05-15T03:19:30.647Z,0.00
2019-05-15T03:20:30.703Z,0.00
2019-05-15T03:22:23.703Z,0.00
2019-05-15T03:23:23.740Z,0.00
2019-05-15T03:25:19.151Z,0.00
2019-05-15T03:26:19.827Z,0.00
2019-05-15T03:28:10.848Z,5.63
2019-05-15T03:29:10.073Z,5.63
2019-05-15T03:31:18.216Z,5.63
2019-05-15T03:32:17.472Z,5.63
2019-05-15T03:34:02.096Z,5.63
2019-05-15T03:34:58.827Z,5.63
2019-05-15T03:36:52.867Z,11.25
2019-05-15T03:37:49.404Z,11.25
2019-05-15T03:39:46.391Z,11.25
2019-05-15T03:40:41.960Z,11.25
2019-05-15T03:42:34.965Z,16.88
2019-05-15T03:43:35.006Z,16.88
2019-05-15T03:45:29.682Z,16.88
2019-05-15T03:46:29.191Z,22.50
2019-05-15T03:48:21.063Z,22.50
2019-05-15T03:49:21.072Z,22.50
2019-05-15T03:51:14.061Z,28.13
2019-05-15T03:52:14.121Z,28.13
2019-05-15T03:54:09.398Z,33.75
2019-05-15T03:55:10.626Z,33.75
2019-05-15T03:57:00.146Z,33.75
2019-05-15T03:58:00.184Z,39.38
2019-05-15T03:59:53.203Z,39.38
2019-05-15T04:00:53.226Z,39.38
2019-05-15T04:02:48.773Z,45.00
2019-05-15T04:03:49.343Z,45.00
2019-05-15T04:05:39.367Z,50.63
2019-05-15T04:06:39.412Z,50.63
2019-05-15T04:08:32.271Z,56.25
2019-05-15T04:09:32.330Z,56.25
2019-05-15T04:11:25.347Z,61.88
2019-05-15T04:12:25.372Z,61.88
2019-05-15T04:14:19.335Z,67.50
2019-05-15T04:15:18.827Z,67.50
2019-05-15T04:17:11.416Z,73.13
2019-05-15T04:18:11.442Z,73.13
2019-05-15T04:20:04.415Z,78.75
2019-05-15T04:21:04.473Z,78.75
2019-05-15T04:23:00.415Z,78.75
2019-05-15T04:23:58.774Z,84.38
2019-05-15T04:25:50.490Z,84.38
2019-05-15T04:26:50.551Z,90.00
2019-05-15T04:28:43.563Z,90.00
2019-05-15T04:29:43.580Z,95.63
2019-05-15T04:31:54.486Z,95.63
2019-05-15T04:32:39.565Z,95.63
2019-05-15T04:34:29.636Z,101.25
2019-05-15T04:35:29.651Z,101.25
2019-05-15T04:37:22.630Z,106.88
2019-05-15T04:38:22.684Z,106.88
2019-05-15T04:40:15.691Z,112.50
2019-05-15T04:41:15.722Z,112.50
2019-05-15T04:43:10.449Z,118.13
2019-05-15T04:44:10.237Z,118.13
2019-05-15T04:46:02.929Z,118.13
2019-05-15T04:47:01.795Z,118.13
2019-05-15T04:48:54.777Z,123.75
2019-05-15T04:49:54.832Z,123.75
2019-05-15T04:51:49.697Z,123.75
2019-05-15T04:52:50.211Z,123.75
2019-05-15T04:54:40.842Z,129.38
2019-05-15T04:55:41.061Z,129.38
2019-05-15T04:57:34.493Z,129.38
2019-05-15T04:58:33.959Z,129.38
2019-05-15T05:00:29.279Z,135.00
2019-05-15T05:01:28.861Z,135.00
2019-05-15T05:03:20.544Z,140.63
2019-05-15T05:04:20.031Z,140.63
2019-05-15T05:06:13.012Z,140.63
2019-05-15T05:07:13.065Z,146.25
2019-05-15T05:09:08.939Z,146.25
2019-05-15T05:10:09.179Z,146.25
2019-05-15T05:11:59.085Z,151.88
2019-05-15T05:12:59.216Z,151.88
2019-05-15T05:14:52.131Z,157.50
2019-05-15T05:15:52.179Z,157.50
2019-05-15T05:17:45.176Z,157.50
2019-05-15T05:18:45.217Z,163.13
2019-05-15T05:20:38.322Z,163.13
2019-05-15T05:21:38.677Z,168.75
2019-05-15T05:23:31.225Z,168.75
2019-05-15T05:24:31.282Z,174.38
2019-05-15T05:26:24.283Z,174.38
2019-05-15T05:27:24.316Z,180.00
2019-05-15T05:29:17.778Z,180.00
2019-05-15T05:30:19.040Z,185.63
2019-05-15T05:32:10.328Z,185.63
2019-05-15T05:33:10.387Z,185.63
2019-05-15T05:35:03.386Z,185.63
2019-05-15T05:36:03.424Z,191.25
2019-05-15T05:37:58.326Z,191.25
2019-05-15T05:38:58.409Z,196.88
2019-05-15T05:40:50.001Z,196.88
2019-05-15T05:41:49.497Z,202.50
2019-05-15T05:43:42.478Z,208.13
2019-05-15T05:44:42.834Z,208.13
2019-05-15T05:46:35.529Z,213.75
2019-05-15T05:47:38.005Z,213.75
2019-05-15T05:49:28.891Z,219.38
2019-05-15T05:50:28.863Z,219.38
2019-05-15T05:52:22.110Z,225.00
2019-05-15T05:53:22.144Z,230.63
2019-05-15T05:55:15.127Z,236.25
2019-05-15T05:56:15.182Z,241.88
2019-05-15T05:58:08.273Z,253.13
2019-05-15T05:59:09.444Z,258.75
2019-05-15T06:01:01.199Z,275.63
2019-05-15T06:02:01.257Z,286.88
2019-05-15T06:03:54.275Z,309.38
2019-05-15T06:04:54.311Z,320.63
2019-05-15T06:06:50.146Z,371.25
2019-05-15T06:07:48.748Z,405.00
2019-05-15T06:09:40.341Z,466.88
2019-05-15T06:10:40.377Z,495.00
2019-05-15T06:12:33.377Z,1063.13
2019-05-15T06:13:33.413Z,2340.00
2019-05-15T06:15:28.501Z,2896.88
2019-05-15T06:16:28.353Z,2851.88
2019-05-15T06:18:20.057Z,2936.25
2019-05-15T06:19:19.489Z,2975.63
2019-05-15T06:21:12.473Z,3144.38
2019-05-15T06:22:12.536Z,3121.88
2019-05-15T06:24:06.074Z,3166.88
2019-05-15T06:25:05.584Z,3133.13
2019-05-15T06:26:58.732Z,3245.63
2019-05-15T06:27:58.629Z,3408.75
2019-05-15T06:29:51.641Z,3206.25
2019-05-15T06:30:51.684Z,3105.00
2019-05-15T06:33:00.883Z,3211.88
2019-05-15T06:33:44.751Z,3172.50
2019-05-15T06:35:39.406Z,3195.00
2019-05-15T06:36:39.325Z,3313.13
2019-05-15T06:38:31.228Z,3420.00
2019-05-15T06:39:30.867Z,3453.75
2019-05-15T06:41:23.862Z,3346.88
2019-05-15T06:42:23.928Z,3431.25
2019-05-15T06:44:18.811Z,3301.88
2019-05-15T06:45:18.933Z,3240.00
2019-05-15T06:47:09.997Z,3504.38
2019-05-15T06:48:10.055Z,3577.50
2019-05-15T06:50:03.080Z,3498.75
2019-05-15T06:51:03.130Z,3453.75
2019-05-15T06:52:58.654Z,3493.13
2019-05-15T06:53:58.271Z,3493.13
2019-05-15T06:55:49.251Z,3706.88
2019-05-15T06:56:49.461Z,3605.63
2019-05-15T06:58:42.295Z,3611.25
2019-05-15T06:59:42.335Z,3588.75
2019-05-15T07:01:38.386Z,3735.00
2019-05-15T07:02:38.291Z,3780.00
2019-05-15T07:04:28.948Z,3796.88
2019-05-15T07:05:29.539Z,3847.50
2019-05-15T07:07:22.000Z,3751.88
2019-05-15T07:08:22.072Z,3870.00
2019-05-15T07:10:15.097Z,3600.00
2019-05-15T07:11:15.152Z,3881.25
2019-05-15T07:13:08.824Z,3948.75
2019-05-15T07:14:08.846Z,3875.63
2019-05-15T07:16:01.249Z,3960.00
2019-05-15T07:17:01.303Z,3937.50
2019-05-15T07:18:54.333Z,3498.75
2019-05-15T07:19:54.378Z,3543.75
2019-05-15T07:21:48.693Z,3802.50
2019-05-15T07:22:49.099Z,3656.25
2019-05-15T07:24:40.481Z,3915.00
2019-05-15T07:25:40.564Z,3943.13
2019-05-15T07:27:33.554Z,4275.00
2019-05-15T07:28:33.608Z,4246.88
2019-05-15T07:30:28.623Z,4134.38
2019-05-15T07:31:28.723Z,4168.13
2019-05-15T07:33:38.815Z,4230.00
2019-05-15T07:34:24.773Z,4252.50
2019-05-15T07:36:19.232Z,4308.75
2019-05-15T07:37:19.076Z,4230.00
2019-05-15T07:39:10.886Z,4578.75
2019-05-15T07:40:10.941Z,4590.00
2019-05-15T07:42:03.955Z,4590.00
2019-05-15T07:43:04.031Z,4556.25
2019-05-15T07:44:58.774Z,4770.00
2019-05-15T07:45:59.011Z,4719.38
2019-05-15T07:47:50.653Z,4876.88
2019-05-15T07:48:50.696Z,4831.88
2019-05-15T07:50:43.727Z,4758.75
2019-05-15T07:51:43.789Z,4826.25
2019-05-15T07:53:38.487Z,4595.63
2019-05-15T07:54:38.325Z,4584.38
2019-05-15T07:56:29.870Z,4359.38
2019-05-15T07:57:30.135Z,4500.00
2019-05-15T07:59:22.983Z,4843.13
2019-05-15T08:00:23.037Z,4781.25
2019-05-15T08:02:16.049Z,4876.88
2019-05-15T08:03:18.226Z,4944.38
2019-05-15T08:05:09.670Z,4921.88
2019-05-15T08:06:09.737Z,4820.63
2019-05-15T08:08:03.246Z,5079.38
2019-05-15T08:09:03.342Z,5085.00
2019-05-15T08:10:57.922Z,4826.25
2019-05-15T08:11:58.958Z,4865.63
2019-05-15T08:13:49.506Z,4809.38
2019-05-15T08:14:50.853Z,4640.63
2019-05-15T08:16:43.057Z,5146.88
2019-05-15T08:18:00.318Z,5124.38
2019-05-15T08:19:38.380Z,5023.13
2019-05-15T08:20:38.354Z,5034.38
2019-05-15T08:22:29.253Z,4938.75
2019-05-15T08:23:29.321Z,5175.00
2019-05-15T08:25:32.391Z,5248.13
2019-05-15T08:26:22.390Z,5242.50
2019-05-15T08:28:15.414Z,4944.38
2019-05-15T08:29:19.190Z,5000.63
2019-05-15T08:31:10.213Z,5158.13
2019-05-15T08:32:08.600Z,4989.38
2019-05-15T08:34:12.651Z,5518.13
2019-05-15T08:35:01.672Z,5473.13
2019-05-15T08:36:54.716Z,5085.00
2019-05-15T08:37:54.773Z,5208.75
2019-05-15T08:39:48.913Z,5400.00
2019-05-15T08:40:49.257Z,5439.38
2019-05-15T08:42:42.139Z,5113.13
2019-05-15T08:43:41.476Z,5045.63
2019-05-15T08:45:34.518Z,4820.63
2019-05-15T08:46:34.569Z,4798.13
2019-05-15T08:48:27.825Z,4500.00
2019-05-15T08:49:28.357Z,4826.25
2019-05-15T08:51:20.688Z,4983.75
2019-05-15T08:52:20.765Z,4466.25
2019-05-15T08:54:13.831Z,4336.88
2019-05-15T08:55:13.865Z,4134.38
2019-05-15T08:57:08.539Z,4516.88
2019-05-15T08:58:13.624Z,4770.00
2019-05-15T08:59:59.996Z,4770.00
2019-05-15T09:01:00.051Z,4792.50
2019-05-15T09:02:53.104Z,4663.13
2019-05-15T09:03:53.156Z,4511.25
2019-05-15T09:05:48.527Z,4651.88
2019-05-15T09:06:49.477Z,4882.50
2019-05-15T09:08:39.487Z,4972.50
2019-05-15T09:09:39.345Z,4927.50
2019-05-15T09:11:32.389Z,4860.00
2019-05-15T09:12:32.443Z,4955.63
2019-05-15T09:14:25.459Z,4950.00
2019-05-15T09:15:25.537Z,4865.63
2019-05-15T09:17:18.567Z,4618.13
2019-05-15T09:18:20.211Z,4696.88
2019-05-15T09:20:11.672Z,4584.38
2019-05-15T09:21:11.724Z,2289.38
2019-05-15T09:23:04.740Z,405.00
2019-05-15T09:24:04.821Z,360.00
2019-05-15T09:25:57.997Z,320.63
2019-05-15T09:26:59.498Z,315.00
2019-05-15T09:28:50.932Z,320.63
2019-05-15T09:29:51.002Z,315.00
2019-05-15T09:31:44.025Z,315.00
2019-05-15T09:32:44.086Z,309.38
2019-05-15T09:34:47.985Z,309.38
2019-05-15T09:35:39.222Z,309.38
2019-05-15T09:37:33.482Z,303.75
2019-05-15T09:38:30.236Z,303.75
2019-05-15T09:40:37.916Z,303.75
2019-05-15T09:41:23.798Z,303.75
2019-05-15T09:43:18.184Z,298.13
2019-05-15T09:44:21.002Z,298.13
2019-05-15T09:46:10.475Z,298.13
2019-05-15T09:47:09.965Z,298.13
2019-05-15T09:49:02.938Z,298.13
2019-05-15T09:50:02.985Z,303.75
2019-05-15T09:51:58.401Z,298.13
2019-05-15T09:52:58.644Z,298.13
2019-05-15T09:54:49.437Z,292.50
2019-05-15T09:55:49.777Z,292.50
2019-05-15T09:57:42.126Z,298.13
2019-05-15T09:58:42.158Z,298.13
2019-05-15T10:00:35.158Z,292.50
2019-05-15T10:01:35.215Z,292.50
2019-05-15T10:03:28.387Z,292.50
2019-05-15T10:04:28.805Z,292.50
2019-05-15T10:06:21.291Z,292.50
2019-05-15T10:07:21.336Z,292.50
2019-05-15T10:09:14.357Z,292.50
2019-05-15T10:10:14.393Z,286.88
2019-05-15T10:12:09.105Z,286.88
2019-05-15T10:13:09.052Z,286.88
2019-05-15T10:15:00.461Z,286.88
2019-05-15T10:16:00.532Z,286.88
2019-05-15T10:17:53.498Z,286.88
2019-05-15T10:18:53.563Z,281.25
2019-05-15T10:20:46.592Z,281.25
2019-05-15T10:21:52.467Z,281.25
2019-05-15T10:23:40.455Z,281.25
2019-05-15T10:24:39.697Z,281.25
2019-05-15T10:26:32.714Z,281.25
2019-05-15T10:27:32.755Z,275.63
2019-05-15T10:29:28.019Z,281.25
2019-05-15T10:30:28.250Z,270.00
2019-05-15T10:32:19.603Z,270.00
2019-05-15T10:33:19.779Z,270.00
2019-05-15T10:35:24.634Z,275.63
2019-05-15T10:36:11.924Z,275.63
2019-05-15T10:38:04.933Z,275.63
2019-05-15T10:39:05.022Z,275.63
2019-05-15T10:41:07.499Z,275.63
2019-05-15T10:41:58.050Z,275.63
2019-05-15T10:43:56.432Z,270.00
2019-05-15T10:44:51.091Z,275.63
2019-05-15T10:46:44.103Z,270.00
2019-05-15T10:47:44.142Z,270.00
2019-05-15T10:49:39.018Z,270.00
2019-05-15T10:50:38.832Z,270.00
2019-05-15T10:52:30.185Z,270.00
2019-05-15T10:53:30.253Z,270.00
2019-05-15T10:55:23.270Z,270.00
2019-05-15T10:56:23.303Z,270.00
2019-05-15T10:58:18.288Z,281.25
2019-05-15T10:59:18.271Z,286.88
2019-05-15T11:01:11.347Z,286.88
2019-05-15T11:02:09.409Z,281.25
2019-05-15T11:04:02.410Z,281.25
2019-05-15T11:05:02.471Z,281.25
2019-05-15T11:06:55.490Z,275.63
2019-05-15T11:07:55.532Z,275.63
2019-05-15T11:09:49.076Z,264.38
2019-05-15T11:10:49.507Z,264.38
2019-05-15T11:12:41.590Z,270.00
2019-05-15T11:13:41.640Z,264.38
2019-05-15T11:15:34.647Z,258.75
2019-05-15T11:16:34.690Z,258.75
2019-05-15T11:18:30.519Z,270.00
2019-05-15T11:19:35.733Z,270.00
2019-05-15T11:21:20.756Z,264.38
2019-05-15T11:22:20.797Z,264.38
2019-05-15T11:24:13.800Z,281.25
2019-05-15T11:25:13.853Z,275.63
2019-05-15T11:27:09.912Z,258.75
2019-05-15T11:28:08.187Z,258.75
2019-05-15T11:29:59.904Z,281.25
2019-05-15T11:30:59.954Z,292.50
2019-05-15T11:32:52.959Z,264.38
2019-05-15T11:33:53.005Z,258.75
2019-05-15T11:35:57.898Z,258.75
2019-05-15T11:36:48.350Z,253.13
2019-05-15T11:38:39.064Z,258.75
2019-05-15T11:39:46.114Z,270.00
2019-05-15T11:41:32.111Z,309.38
2019-05-15T11:42:32.154Z,275.63
2019-05-15T11:44:25.163Z,247.50
2019-05-15T11:45:25.208Z,253.13
2019-05-15T11:47:18.481Z,253.13
2019-05-15T11:48:20.468Z,253.13
2019-05-15T11:50:11.266Z,253.13
2019-05-15T11:51:11.316Z,247.50
2019-05-15T11:53:04.817Z,247.50
2019-05-15T11:54:04.871Z,241.88
2019-05-15T11:55:59.809Z,241.88
2019-05-15T11:56:59.698Z,241.88
2019-05-15T11:58:50.929Z,247.50
2019-05-15T11:59:55.206Z,247.50
2019-05-15T12:01:43.976Z,241.88
2019-05-15T12:02:44.027Z,225.00
2019-05-15T12:04:38.320Z,241.88
2019-05-15T12:05:38.502Z,241.88
2019-05-15T12:07:30.088Z,241.88
2019-05-15T12:08:30.127Z,241.88
2019-05-15T12:10:23.144Z,247.50
2019-05-15T12:11:33.431Z,247.50
2019-05-15T12:13:18.665Z,253.13
2019-05-15T12:14:19.369Z,253.13
2019-05-15T12:16:09.234Z,270.00
2019-05-15T12:17:15.026Z,270.00
2019-05-15T12:19:08.983Z,275.63
2019-05-15T12:20:06.266Z,331.88
2019-05-15T12:21:55.332Z,303.75
2019-05-15T12:22:55.402Z,275.63
2019-05-15T12:24:49.971Z,258.75
2019-05-15T12:25:49.012Z,247.50
2019-05-15T12:27:41.460Z,247.50
2019-05-15T12:28:41.476Z,253.13
2019-05-15T12:30:34.481Z,253.13
2019-05-15T12:31:34.532Z,253.13
2019-05-15T12:33:29.069Z,258.75
2019-05-15T12:34:28.978Z,270.00
2019-05-15T12:36:46.145Z,320.63
2019-05-15T12:37:20.645Z,343.13
2019-05-15T12:39:14.145Z,320.63
2019-05-15T12:59:41.361Z,433.13
2019-05-15T13:00:25.571Z,421.88
2019-05-15T13:02:18.796Z,326.25
2019-05-15T13:03:18.650Z,258.75
2019-05-15T13:05:11.638Z,253.13
2019-05-15T13:06:11.683Z,270.00
2019-05-15T13:08:04.699Z,365.63
2019-05-15T13:09:04.746Z,444.38
2019-05-15T13:10:57.741Z,545.63
2019-05-15T13:11:57.806Z,455.63
2019-05-15T13:13:50.811Z,326.25
2019-05-15T13:14:50.861Z,326.25
2019-05-15T13:16:43.906Z,309.38
2019-05-15T13:17:43.937Z,309.38
2019-05-15T13:19:38.803Z,315.00
2019-05-15T13:20:38.369Z,264.38
2019-05-15T13:22:30.010Z,298.13
2019-05-15T13:23:30.053Z,348.75
2019-05-15T13:25:23.483Z,534.38
2019-05-15T13:26:26.642Z,534.38
2019-05-15T13:28:18.290Z,416.25
2019-05-15T13:29:18.264Z,405.00
2019-05-15T13:31:09.360Z,360.00
2019-05-15T13:32:09.226Z,298.13
2019-05-15T13:34:02.232Z,270.00
2019-05-15T13:35:02.282Z,241.88
2019-05-15T13:36:55.279Z,281.25
2019-05-15T13:37:55.332Z,298.13
2019-05-15T13:39:48.608Z,450.00
2019-05-15T13:40:48.386Z,540.00
2019-05-15T13:42:41.385Z,630.00
2019-05-15T13:43:41.440Z,641.25
2019-05-15T13:45:34.454Z,590.63
2019-05-15T13:46:34.491Z,573.75
2019-05-15T13:48:29.332Z,511.88
2019-05-15T13:49:28.113Z,421.88
2019-05-15T13:51:20.567Z,365.63
2019-05-15T13:52:20.612Z,343.13
2019-05-15T13:54:13.631Z,292.50
2019-05-15T13:55:13.683Z,292.50
2019-05-15T13:57:08.635Z,337.50
2019-05-15T13:58:08.723Z,315.00
2019-05-15T13:59:59.741Z,371.25
2019-05-15T14:00:59.825Z,388.13
2019-05-15T14:02:52.779Z,388.13
2019-05-15T14:03:52.840Z,365.63
2019-05-15T14:05:45.857Z,315.00
2019-05-15T14:06:48.494Z,303.75
2019-05-15T14:08:38.923Z,309.38
2019-05-15T14:09:44.355Z,399.38
2019-05-15T14:11:31.950Z,624.38
2019-05-15T14:12:32.006Z,641.25
2019-05-15T14:14:25.022Z,630.00
2019-05-15T14:15:25.070Z,630.00
2019-05-15T14:17:18.085Z,613.13
2019-05-15T14:18:19.734Z,596.25
2019-05-15T14:20:11.133Z,472.50
2019-05-15T14:21:11.191Z,399.38
2019-05-15T14:23:04.199Z,292.50
2019-05-15T14:24:04.252Z,264.38
2019-05-15T14:25:58.948Z,275.63
2019-05-15T14:26:59.371Z,281.25
2019-05-15T14:28:50.300Z,309.38
2019-05-15T14:29:50.365Z,337.50
2019-05-15T14:31:43.373Z,331.88
2019-05-15T14:32:43.416Z,371.25
2019-05-15T14:34:38.099Z,393.75
2019-05-15T14:35:38.003Z,416.25
2019-05-15T14:37:29.472Z,421.88
2019-05-15T14:38:29.526Z,410.63
2019-05-15T14:40:22.523Z,450.00
2019-05-15T14:41:22.577Z,478.13
2019-05-15T14:43:15.600Z,517.50
2019-05-15T14:44:20.722Z,489.38
2019-05-15T14:46:08.628Z,472.50
2019-05-15T14:47:08.922Z,421.88
2019-05-15T14:49:01.703Z,365.63
2019-05-15T14:50:01.748Z,286.88
2019-05-15T14:52:05.642Z,292.50
2019-05-15T14:52:54.803Z,365.63
2019-05-15T14:54:48.998Z,545.63
2019-05-15T14:55:49.204Z,562.50
2019-05-15T14:57:40.919Z,506.25
2019-05-15T14:58:40.982Z,472.50
2019-05-15T15:00:34.968Z,450.00
2019-05-15T15:01:34.033Z,444.38
2019-05-15T15:03:28.873Z,382.50
2019-05-15T15:04:29.025Z,365.63
2019-05-15T15:06:20.094Z,320.63
2019-05-15T15:07:20.139Z,281.25
2019-05-15T15:09:13.130Z,236.25
2019-05-15T15:10:13.204Z,241.88
2019-05-15T15:12:08.183Z,320.63
2019-05-15T15:13:08.752Z,354.38
2019-05-15T15:14:59.244Z,410.63
2019-05-15T15:15:59.304Z,461.25
2019-05-15T15:17:52.324Z,478.13
2019-05-15T15:18:52.363Z,545.63
2019-05-15T15:20:45.361Z,466.88
2019-05-15T15:21:45.426Z,472.50
2019-05-15T15:23:38.872Z,416.25
2019-05-15T15:24:38.949Z,393.75
2019-05-15T15:26:31.469Z,281.25
2019-05-15T15:27:31.545Z,275.63
2019-05-15T15:29:24.550Z,286.88
2019-05-15T15:30:24.607Z,303.75
2019-05-15T15:32:17.607Z,298.13
2019-05-15T15:33:17.644Z,286.88
2019-05-15T15:35:10.660Z,320.63
2019-05-15T15:36:10.694Z,309.38
2019-05-15T15:38:03.734Z,354.38
2019-05-15T15:39:03.744Z,371.25
2019-05-15T15:41:00.059Z,399.38
2019-05-15T15:41:57.886Z,410.63
2019-05-15T15:43:52.236Z,405.00
2019-05-15T15:44:49.844Z,405.00
2019-05-15T15:46:42.884Z,382.50
2019-05-15T15:47:42.917Z,354.38
2019-05-15T15:49:35.925Z,337.50
2019-05-15T15:50:38.116Z,320.63
2019-05-15T15:52:29.140Z,331.88
2019-05-15T15:53:29.015Z,343.13
2019-05-15T15:55:22.052Z,348.75
2019-05-15T15:56:22.084Z,360.00
2019-05-15T15:58:15.097Z,309.38
2019-05-15T15:59:15.141Z,286.88
2019-05-15T16:01:09.051Z,225.00
2019-05-15T16:02:08.854Z,208.13
2019-05-15T16:04:01.211Z,208.13
2019-05-15T16:05:01.245Z,213.75
2019-05-15T16:06:54.241Z,208.13
2019-05-15T16:07:54.304Z,202.50
2019-05-15T16:09:48.384Z,196.88
2019-05-15T16:10:48.351Z,196.88
2019-05-15T16:12:40.351Z,196.88
2019-05-15T16:13:40.423Z,196.88
2019-05-15T16:15:33.431Z,196.88
2019-05-15T16:16:33.464Z,202.50
2019-05-15T16:18:28.795Z,196.88
2019-05-15T16:19:28.355Z,168.75
2019-05-15T16:21:19.530Z,208.13
2019-05-15T16:22:19.568Z,208.13
2019-05-15T16:24:17.354Z,213.75
2019-05-15T16:25:12.616Z,208.13
2019-05-15T16:27:05.633Z,213.75
2019-05-15T16:28:05.664Z,219.38
2019-05-15T16:29:58.682Z,213.75
2019-05-15T16:30:58.826Z,213.75
2019-05-15T16:32:51.820Z,225.00
2019-05-15T16:33:51.786Z,253.13
2019-05-15T16:35:44.788Z,337.50
2019-05-15T16:36:44.821Z,393.75
2019-05-15T16:38:38.942Z,354.38
2019-05-15T16:39:38.315Z,348.75
2019-05-15T16:41:30.887Z,315.00
2019-05-15T16:42:30.938Z,315.00
2019-05-15T16:44:23.931Z,275.63
2019-05-15T16:45:23.976Z,270.00
2019-05-15T16:47:18.604Z,202.50
2019-05-15T16:48:18.688Z,185.63
2019-05-15T16:50:10.030Z,168.75
2019-05-15T16:51:10.138Z,191.25
2019-05-15T16:53:03.623Z,219.38
2019-05-15T16:54:03.653Z,219.38
2019-05-15T16:55:58.660Z,241.88
2019-05-15T16:56:58.787Z,230.63
2019-05-15T16:58:49.694Z,191.25
2019-05-15T16:59:49.758Z,163.13
2019-05-15T17:01:42.764Z,123.75
2019-05-15T17:02:42.816Z,123.75
2019-05-15T17:04:38.076Z,123.75
2019-05-15T17:05:38.200Z,123.75
2019-05-15T17:07:29.089Z,129.38
2019-05-15T17:08:32.056Z,129.38
2019-05-15T17:10:21.911Z,135.00
2019-05-15T17:11:22.010Z,135.00
2019-05-15T17:13:14.986Z,151.88
2019-05-15T17:14:15.026Z,163.13
2019-05-15T17:16:08.017Z,163.13
2019-05-15T17:17:08.108Z,168.75
2019-05-15T17:19:01.101Z,168.75
2019-05-15T17:20:02.100Z,174.38
2019-05-15T17:21:54.153Z,185.63
2019-05-15T17:22:54.197Z,191.25
2019-05-15T17:24:48.826Z,208.13
2019-05-15T17:25:48.867Z,213.75
2019-05-15T17:27:40.239Z,202.50
2019-05-15T17:28:40.301Z,180.00
2019-05-15T17:30:33.310Z,174.38
2019-05-15T17:31:33.352Z,191.25
2019-05-15T17:33:28.662Z,202.50
2019-05-15T17:34:28.446Z,202.50
2019-05-15T17:36:19.430Z,196.88
2019-05-15T17:37:19.491Z,185.63
2019-05-15T17:39:12.500Z,185.63
2019-05-15T17:40:12.543Z,174.38
2019-05-15T17:42:05.567Z,157.50
2019-05-15T17:43:05.609Z,146.25
2019-05-15T17:44:58.595Z,123.75
2019-05-15T17:45:58.655Z,112.50
2019-05-15T17:47:51.682Z,101.25
2019-05-15T17:48:55.310Z,106.88
2019-05-15T17:50:48.947Z,106.88
2019-05-15T17:51:44.769Z,106.88
2019-05-15T17:53:38.219Z,118.13
2019-05-15T17:54:38.081Z,118.13
2019-05-15T17:56:30.895Z,118.13
2019-05-15T17:57:30.936Z,118.13
2019-05-15T17:59:23.927Z,112.50
2019-05-15T18:00:23.961Z,106.88
2019-05-15T18:02:18.967Z,95.63
2019-05-15T18:03:19.131Z,95.63
2019-05-15T18:05:10.063Z,95.63
2019-05-15T18:07:51.069Z,95.63
2019-05-15T18:08:51.088Z,95.63
2019-05-15T18:10:44.321Z,95.63
2019-05-15T18:11:44.702Z,95.63
2019-05-15T18:13:38.227Z,90.00
2019-05-15T18:14:38.318Z,90.00
2019-05-15T18:16:30.524Z,84.38
2019-05-15T18:17:30.517Z,84.38
2019-05-15T18:19:23.490Z,78.75
2019-05-15T18:20:23.527Z,78.75
2019-05-15T18:22:18.091Z,78.75
2019-05-15T18:23:18.722Z,78.75
2019-05-15T18:25:09.599Z,73.13
2019-05-15T18:26:10.625Z,73.13
2019-05-15T18:28:02.705Z,67.50
2019-05-15T18:29:02.743Z,67.50